Time,TemperatureF,DewpointF,PressureIn,WindDirection,WindDirectionDegrees,WindSpeedMPH,WindSpeedGustMPH,Humidity,HourlyPrecipIn,Conditions,Clouds,dailyrainin,SolarRadiationWatts/m^2,SoftwareType,DateUTC
2013-02-26 00:00:00,20.3,9.4,30.37,SSW,197,0.0,2.0,62,0.00,,,0.02,0,LWC V2.00 B727,2013-02-26 07:00:00,
2013-02-26 00:05:00,20.0,9.1,30.37,SSW,197,0.0,1.0,62,0.00,,,0.00,0,LWC V2.00 B727,2013-02-26 07:05:00,
2013-02-26 00:10:00,19.8,9.3,30.37,SSW,196,1.0,2.0,63,0.00,,,0.00,0,LWC V2.00 B727,2013-02-26 07:10:00,
2013-02-26 00:15:00,19.8,9.3,30.38,SSW,194,1.0,2.0,63,0.00,,,0.00,0,LWC V2.00 B727,2013-02-26 07:15:00,
2013-02-26 00:20:00,19.7,9.2,30.37,SSW,194,1.0,1.0,63,0.00,,,0.00,0,LWC V2.00 B727,2013-02-26 07:20:00,
2013-02-26 00:25:00,19.7,9.2,30.37,SSW,194,0.0,1.0,63,0.00,,,0.00,0,LWC V2.00 B727,2013-02-26 07:25:00,
2013-02-26 00:30:00,19.5,9.3,30.37,SSW,193,0.0,2.0,64,0.00,,,0.00,0,LWC V2.00 B727,2013-02-26 07:30:00,
2013-02-26 00:35:00,19.5,9.3,30.37,SSW,193,1.0,2.0,64,0.00,,,0.00,0,LWC V2.00 B727,2013-02-26 07:35:00,
2013-02-26 00:40:00,19.7,9.9,30.37,SSW,193,1.0,2.0,65,0.00,,,0.00,0,LWC V2.00 B727,2013-02-26 07:40:00,
2013-02-26 00:45:00,19.9,10.1,30.36,SSW,192,1.0,1.0,65,0.00,,,0.00,0,LWC V2.00 B727,2013-02-26 07:45:00,
2013-02-26 00:50:00,20.3,10.4,30.37,SSW,193,1.0,2.0,65,0.00,,,0.00,0,LWC V2.00 B727,2013-02-26 07:50:00,
2013-02-26 00:55:00,20.6,10.4,30.37,SSW,192,1.0,1.0,64,0.00,,,0.00,0,LWC V2.00 B727,2013-02-26 07:55:00,
2013-02-26 01:00:00,20.7,10.5,30.37,SSW,192,0.0,0.0,64,0.00,,,0.00,0,LWC V2.00 B727,2013-02-26 08:00:00,
2013-02-26 01:05:00,20.8,10.6,30.37,SSW,192,0.0,0.0,64,0.00,,,0.00,0,LWC V2.00 B727,2013-02-26 08:05:00,
2013-02-26 01:10:00,20.9,10.7,30.37,SSW,193,0.0,0.0,64,0.00,,,0.00,0,LWC V2.00 B727,2013-02-26 08:10:00,
2013-02-26 01:15:00,21.3,10.0,30.37,SSW,193,0.0,1.0,61,0.00,,,0.00,0,LWC V2.00 B727,2013-02-26 08:15:00,
2013-02-26 01:20:00,21.6,10.3,30.37,SSW,193,0.0,1.0,61,0.00,,,0.00,0,LWC V2.00 B727,2013-02-26 08:20:00,
2013-02-26 01:25:00,21.7,10.7,30.37,SSW,193,0.0,1.0,62,0.00,,,0.00,0,LWC V2.00 B727,2013-02-26 08:25:00,
2013-02-26 01:30:00,21.8,9.7,30.37,SSW,192,0.0,1.0,59,0.00,,,0.00,0,LWC V2.00 B727,2013-02-26 08:30:00,
2013-02-26 01:35:00,22.0,9.1,30.37,SSW,192,1.0,3.0,57,0.00,,,0.00,0,LWC V2.00 B727,2013-02-26 08:35:00,
2013-02-26 01:40:00,22.9,9.2,30.37,SSW,193,4.0,6.0,55,0.00,,,0.00,0,LWC V2.00 B727,2013-02-26 08:40:00,
2013-02-26 01:45:00,23.5,8.9,30.37,SSW,193,1.0,3.0,53,0.00,,,0.00,0,LWC V2.00 B727,2013-02-26 08:45:00,
2013-02-26 01:50:00,23.9,8.9,30.36,SSW,193,0.0,0.0,52,0.00,,,0.00,0,LWC V2.00 B727,2013-02-26 08:50:00,
2013-02-26 01:55:00,23.9,9.3,30.36,SSW,192,0.0,0.0,53,0.00,,,0.00,0,LWC V2.00 B727,2013-02-26 08:55:00,
2013-02-26 02:00:00,24.0,9.8,30.35,SSW,193,0.0,0.0,54,0.00,,,0.00,0,LWC V2.00 B727,2013-02-26 09:00:00,
2013-02-26 02:05:00,24.0,8.5,30.35,SSW,192,1.0,2.0,51,0.00,,,0.00,0,LWC V2.00 B727,2013-02-26 09:05:00,
2013-02-26 02:10:00,24.1,8.2,30.35,SSW,192,0.0,2.0,50,0.00,,,0.00,0,LWC V2.00 B727,2013-02-26 09:10:00,
2013-02-26 02:15:00,24.2,7.8,30.35,SSW,193,1.0,3.0,49,0.00,,,0.00,0,LWC V2.00 B727,2013-02-26 09:15:00,
2013-02-26 02:20:00,24.4,7.6,30.35,SSW,194,2.0,2.0,48,0.00,,,0.00,0,LWC V2.00 B727,2013-02-26 09:20:00,
2013-02-26 02:25:00,24.5,7.2,30.35,SSW,192,0.0,1.0,47,0.00,,,0.00,0,LWC V2.00 B727,2013-02-26 09:25:00,
2013-02-26 02:30:00,24.3,7.5,30.35,SSW,193,0.0,1.0,48,0.00,,,0.00,0,LWC V2.00 B727,2013-02-26 09:30:00,
2013-02-26 02:35:00,24.3,6.5,30.34,SSW,212,0.0,1.0,46,0.00,,,0.00,0,LWC V2.00 B727,2013-02-26 09:35:00,
2013-02-26 02:40:00,24.3,6.1,30.34,SSW,209,2.0,3.0,45,0.00,,,0.00,0,LWC V2.00 B727,2013-02-26 09:40:00,
2013-02-26 02:45:00,24.6,5.8,30.34,SW,222,1.0,3.0,44,0.00,,,0.00,0,LWC V2.00 B727,2013-02-26 09:45:00,
2013-02-26 02:50:00,24.5,5.7,30.33,SW,221,2.0,3.0,44,0.00,,,0.00,0,LWC V2.00 B727,2013-02-26 09:50:00,
2013-02-26 02:55:00,24.2,6.0,30.32,SW,218,0.0,1.0,45,0.00,,,0.00,0,LWC V2.00 B727,2013-02-26 09:55:00,
2013-02-26 03:00:00,23.7,6.0,30.32,SW,218,0.0,1.0,46,0.00,,,0.00,0,LWC V2.00 B727,2013-02-26 10:00:00,
2013-02-26 03:05:00,23.3,5.6,30.33,SW,218,0.0,0.0,46,0.00,,,0.00,0,LWC V2.00 B727,2013-02-26 10:05:00,
2013-02-26 03:10:00,22.9,5.7,30.32,SW,218,0.0,0.0,47,0.00,,,0.00,0,LWC V2.00 B727,2013-02-26 10:10:00,
2013-02-26 03:15:00,22.2,5.5,30.32,SW,218,3.0,3.0,48,0.00,,,0.00,0,LWC V2.00 B727,2013-02-26 10:15:00,
2013-02-26 03:20:00,21.6,5.4,30.32,SW,218,0.0,1.0,49,0.00,,,0.00,0,LWC V2.00 B727,2013-02-26 10:20:00,
2013-02-26 03:25:00,21.2,5.5,30.33,SW,218,0.0,0.0,50,0.00,,,0.00,0,LWC V2.00 B727,2013-02-26 10:25:00,
2013-02-26 03:30:00,21.0,5.3,30.32,SW,218,0.0,0.0,50,0.00,,,0.00,0,LWC V2.00 B727,2013-02-26 10:30:00,
2013-02-26 03:35:00,20.7,5.0,30.33,SW,218,0.0,0.0,50,0.00,,,0.00,0,LWC V2.00 B727,2013-02-26 10:35:00,
2013-02-26 03:40:00,20.3,5.1,30.33,SW,218,0.0,1.0,51,0.00,,,0.00,0,LWC V2.00 B727,2013-02-26 10:40:00,
2013-02-26 03:45:00,19.9,5.1,30.32,SW,218,0.0,0.0,52,0.00,,,0.00,0,LWC V2.00 B727,2013-02-26 10:45:00,
2013-02-26 03:50:00,19.6,5.3,30.32,SW,218,0.0,0.0,53,0.00,,,0.00,0,LWC V2.00 B727,2013-02-26 10:50:00,
2013-02-26 03:55:00,19.1,4.8,30.32,SW,218,0.0,0.0,53,0.00,,,0.00,0,LWC V2.00 B727,2013-02-26 10:55:00,
2013-02-26 04:00:00,18.5,4.7,30.32,SW,218,1.0,1.0,54,0.00,,,0.00,0,LWC V2.00 B727,2013-02-26 11:00:00,
2013-02-26 04:05:00,18.1,4.3,30.31,SW,218,0.0,0.0,54,0.00,,,0.00,0,LWC V2.00 B727,2013-02-26 11:05:00,
2013-02-26 04:10:00,17.7,4.3,30.31,SW,218,0.0,0.0,55,0.00,,,0.00,0,LWC V2.00 B727,2013-02-26 11:10:00,
2013-02-26 04:15:00,17.5,4.1,30.31,SW,218,0.0,0.0,55,0.00,,,0.00,0,LWC V2.00 B727,2013-02-26 11:15:00,
2013-02-26 04:20:00,17.0,4.4,30.31,SW,218,1.0,1.0,57,0.00,,,0.00,0,LWC V2.00 B727,2013-02-26 11:20:00,
2013-02-26 04:25:00,17.2,4.6,30.31,SW,236,2.0,5.0,57,0.00,,,0.00,0,LWC V2.00 B727,2013-02-26 11:25:00,
2013-02-26 04:30:00,17.9,4.9,30.31,SW,234,0.0,1.0,56,0.00,,,0.00,0,LWC V2.00 B727,2013-02-26 11:30:00,
2013-02-26 04:35:00,18.5,5.5,30.31,SW,235,0.0,1.0,56,0.00,,,0.00,0,LWC V2.00 B727,2013-02-26 11:35:00,
2013-02-26 04:40:00,18.5,5.1,30.30,SW,235,0.0,0.0,55,0.00,,,0.00,0,LWC V2.00 B727,2013-02-26 11:40:00,
2013-02-26 04:45:00,18.4,4.6,30.31,SW,235,0.0,0.0,54,0.00,,,0.00,0,LWC V2.00 B727,2013-02-26 11:45:00,
2013-02-26 04:50:00,18.2,4.4,30.31,SW,234,0.0,0.0,54,0.00,,,0.00,0,LWC V2.00 B727,2013-02-26 11:50:00,
2013-02-26 04:55:00,17.9,4.1,30.31,SW,235,0.0,0.0,54,0.00,,,0.00,0,LWC V2.00 B727,2013-02-26 11:55:00,
2013-02-26 05:00:00,17.9,4.9,30.31,SW,234,0.0,1.0,56,0.00,,,0.00,0,LWC V2.00 B727,2013-02-26 12:00:00,
2013-02-26 05:05:00,17.9,4.5,30.31,SW,235,0.0,0.0,55,0.00,,,0.00,0,LWC V2.00 B727,2013-02-26 12:05:00,
2013-02-26 05:10:00,17.7,4.3,30.31,SW,235,0.0,0.0,55,0.00,,,0.00,0,LWC V2.00 B727,2013-02-26 12:10:00,
2013-02-26 05:15:00,17.3,3.9,30.31,SW,235,0.0,0.0,55,0.00,,,0.00,0,LWC V2.00 B727,2013-02-26 12:15:00,
2013-02-26 05:20:00,16.9,4.0,30.31,SW,234,0.0,0.0,56,0.00,,,0.00,0,LWC V2.00 B727,2013-02-26 12:20:00,
2013-02-26 05:25:00,16.3,3.8,30.31,SW,235,0.0,0.0,57,0.00,,,0.00,0,LWC V2.00 B727,2013-02-26 12:25:00,
2013-02-26 05:30:00,15.7,4.0,30.30,SW,235,0.0,0.0,59,0.00,,,0.00,0,LWC V2.00 B727,2013-02-26 12:30:00,
2013-02-26 05:35:00,15.1,4.1,30.30,SW,234,0.0,1.0,61,0.00,,,0.00,0,LWC V2.00 B727,2013-02-26 12:35:00,
2013-02-26 05:40:00,14.9,4.3,30.30,SW,235,2.0,2.0,62,0.00,,,0.00,0,LWC V2.00 B727,2013-02-26 12:40:00,
2013-02-26 05:45:00,14.8,4.2,30.30,SW,235,0.0,1.0,62,0.00,,,0.00,0,LWC V2.00 B727,2013-02-26 12:45:00,
2013-02-26 05:50:00,14.8,4.2,30.29,SW,235,0.0,0.0,62,0.00,,,0.00,0,LWC V2.00 B727,2013-02-26 12:50:00,
2013-02-26 05:55:00,14.7,4.1,30.29,SW,234,0.0,0.0,62,0.00,,,0.00,0,LWC V2.00 B727,2013-02-26 12:55:00,
2013-02-26 06:00:00,14.7,4.1,30.29,SW,235,0.0,0.0,62,0.00,,,0.00,0,LWC V2.00 B727,2013-02-26 13:00:00,
2013-02-26 06:05:00,14.6,4.0,30.29,SW,235,0.0,1.0,62,0.00,,,0.00,0,LWC V2.00 B727,2013-02-26 13:05:00,
2013-02-26 06:10:00,14.6,3.6,30.29,SW,234,0.0,0.0,61,0.00,,,0.00,0,LWC V2.00 B727,2013-02-26 13:10:00,
2013-02-26 06:15:00,14.4,3.4,30.28,SW,235,0.0,0.0,61,0.00,,,0.00,0,LWC V2.00 B727,2013-02-26 13:15:00,
2013-02-26 06:20:00,14.2,3.3,30.28,SW,235,0.0,0.0,61,0.00,,,0.00,0,LWC V2.00 B727,2013-02-26 13:20:00,
2013-02-26 06:25:00,13.9,3.0,30.28,SW,235,0.0,0.0,61,0.00,,,0.00,0,LWC V2.00 B727,2013-02-26 13:25:00,
2013-02-26 06:30:00,13.6,3.0,30.28,SW,234,0.0,0.0,62,0.00,,,0.00,0,LWC V2.00 B727,2013-02-26 13:30:00,
2013-02-26 06:35:00,13.3,2.7,30.28,SW,235,0.0,0.0,62,0.00,,,0.00,0,LWC V2.00 B727,2013-02-26 13:35:00,
2013-02-26 06:40:00,13.1,2.9,30.28,SW,235,0.0,0.0,63,0.00,,,0.00,5,LWC V2.00 B727,2013-02-26 13:40:00,
2013-02-26 06:45:00,12.8,2.6,30.28,SW,234,0.0,0.0,63,0.00,,,0.00,7,LWC V2.00 B727,2013-02-26 13:45:00,
2013-02-26 06:50:00,12.6,2.4,30.29,SW,235,0.0,0.0,63,0.00,,,0.00,11,LWC V2.00 B727,2013-02-26 13:50:00,
2013-02-26 06:55:00,12.3,2.5,30.28,SW,235,0.0,0.0,64,0.00,,,0.00,12,LWC V2.00 B727,2013-02-26 13:55:00,
2013-02-26 07:00:00,12.1,2.3,30.28,SW,235,0.0,0.0,64,0.00,,,0.00,26,LWC V2.00 B727,2013-02-26 14:00:00,
2013-02-26 07:05:00,11.9,2.4,30.28,SW,235,0.0,0.0,65,0.00,,,0.00,21,LWC V2.00 B727,2013-02-26 14:05:00,
2013-02-26 07:10:00,11.8,3.0,30.28,SW,235,0.0,0.0,67,0.00,,,0.00,26,LWC V2.00 B727,2013-02-26 14:10:00,
2013-02-26 07:15:00,11.8,3.0,30.28,SW,235,0.0,0.0,67,0.00,,,0.00,58,LWC V2.00 B727,2013-02-26 14:15:00,
2013-02-26 07:20:00,12.0,3.5,30.28,SW,234,0.0,0.0,68,0.00,,,0.00,37,LWC V2.00 B727,2013-02-26 14:20:00,
2013-02-26 07:25:00,12.3,3.8,30.28,SW,235,0.0,0.0,68,0.00,,,0.00,67,LWC V2.00 B727,2013-02-26 14:25:00,
2013-02-26 07:30:00,12.7,4.2,30.28,SW,235,0.0,0.0,68,0.00,,,0.00,56,LWC V2.00 B727,2013-02-26 14:30:00,
2013-02-26 07:35:00,13.2,4.7,30.28,SW,235,0.0,0.0,68,0.00,,,0.00,109,LWC V2.00 B727,2013-02-26 14:35:00,
2013-02-26 07:40:00,13.9,5.3,30.27,SW,234,0.0,0.0,68,0.00,,,0.00,176,LWC V2.00 B727,2013-02-26 14:40:00,
2013-02-26 07:45:00,14.6,6.3,30.28,SW,235,0.0,0.0,69,0.00,,,0.00,192,LWC V2.00 B727,2013-02-26 14:45:00,
2013-02-26 07:50:00,15.4,6.8,30.28,SW,235,0.0,0.0,68,0.00,,,0.00,260,LWC V2.00 B727,2013-02-26 14:50:00,
2013-02-26 07:55:00,16.3,7.0,30.27,SW,234,0.0,0.0,66,0.00,,,0.00,279,LWC V2.00 B727,2013-02-26 14:55:00,
2013-02-26 08:00:00,17.5,7.8,30.27,SW,234,1.0,1.0,65,0.00,,,0.00,299,LWC V2.00 B727,2013-02-26 15:00:00,
2013-02-26 08:05:00,18.7,8.2,30.27,SW,235,0.0,0.0,63,0.00,,,0.00,320,LWC V2.00 B727,2013-02-26 15:05:00,
2013-02-26 08:10:00,19.6,8.4,30.27,SW,235,0.0,0.0,61,0.00,,,0.00,339,LWC V2.00 B727,2013-02-26 15:10:00,
2013-02-26 08:15:00,20.6,8.9,30.27,SW,234,0.0,0.0,60,0.00,,,0.00,359,LWC V2.00 B727,2013-02-26 15:15:00,
2013-02-26 08:20:00,21.3,9.2,30.27,SW,235,0.0,1.0,59,0.00,,,0.00,378,LWC V2.00 B727,2013-02-26 15:20:00,
2013-02-26 08:25:00,22.4,9.5,30.27,SW,236,0.0,2.0,57,0.00,,,0.00,394,LWC V2.00 B727,2013-02-26 15:25:00,
2013-02-26 08:30:00,23.3,10.0,30.27,SW,236,3.0,3.0,56,0.00,,,0.00,411,LWC V2.00 B727,2013-02-26 15:30:00,
2013-02-26 08:35:00,24.4,10.6,30.27,West,273,0.0,3.0,55,0.00,,,0.00,431,LWC V2.00 B727,2013-02-26 15:35:00,
2013-02-26 08:40:00,25.3,10.6,30.26,West,261,3.0,8.0,53,0.00,,,0.00,448,LWC V2.00 B727,2013-02-26 15:40:00,
2013-02-26 08:45:00,26.2,11.0,30.27,SW,217,2.0,4.0,52,0.00,,,0.00,462,LWC V2.00 B727,2013-02-26 15:45:00,
2013-02-26 08:50:00,26.9,10.8,30.26,SW,221,3.0,5.0,50,0.00,,,0.00,455,LWC V2.00 B727,2013-02-26 15:50:00,
2013-02-26 08:55:00,27.5,11.3,30.26,West,265,2.0,4.0,50,0.00,,,0.00,497,LWC V2.00 B727,2013-02-26 15:55:00,
2013-02-26 09:00:00,28.1,11.4,30.26,SW,229,5.0,9.0,49,0.00,,,0.00,515,LWC V2.00 B727,2013-02-26 16:00:00,
2013-02-26 09:05:00,28.7,12.0,30.25,North,355,0.0,3.0,49,0.00,,,0.00,529,LWC V2.00 B727,2013-02-26 16:05:00,
2013-02-26 09:10:00,29.5,12.3,30.25,WNW,296,3.0,3.0,48,0.00,,,0.00,548,LWC V2.00 B727,2013-02-26 16:10:00,
2013-02-26 09:15:00,30.2,11.9,30.25,SW,220,7.0,8.0,46,0.00,,,0.00,566,LWC V2.00 B727,2013-02-26 16:15:00,
2013-02-26 09:20:00,30.6,10.8,30.25,WSW,239,10.0,12.0,43,0.00,,,0.00,580,LWC V2.00 B727,2013-02-26 16:20:00,
2013-02-26 09:25:00,30.7,10.4,30.25,SW,235,4.0,11.0,42,0.00,,,0.00,596,LWC V2.00 B727,2013-02-26 16:25:00,
2013-02-26 09:30:00,30.8,11.5,30.25,SSE,155,4.0,8.0,44,0.00,,,0.00,610,LWC V2.00 B727,2013-02-26 16:30:00,
2013-02-26 09:35:00,30.9,10.0,30.25,SW,231,5.0,11.0,41,0.00,,,0.00,622,LWC V2.00 B727,2013-02-26 16:35:00,
2013-02-26 09:40:00,30.8,10.4,30.24,WSW,249,10.0,11.0,42,0.00,,,0.00,638,LWC V2.00 B727,2013-02-26 16:40:00,
2013-02-26 09:45:00,30.9,11.1,30.24,SSW,213,5.0,11.0,43,0.00,,,0.00,652,LWC V2.00 B727,2013-02-26 16:45:00,
2013-02-26 09:50:00,31.2,10.8,30.24,SSW,198,3.0,9.0,42,0.00,,,0.00,668,LWC V2.00 B727,2013-02-26 16:50:00,
2013-02-26 09:55:00,31.4,11.0,30.24,SW,223,5.0,5.0,42,0.00,,,0.00,682,LWC V2.00 B727,2013-02-26 16:55:00,
2013-02-26 10:00:00,31.7,11.8,30.23,North,11,6.0,11.0,43,0.00,,,0.00,700,LWC V2.00 B727,2013-02-26 17:00:00,
2013-02-26 10:05:00,31.7,11.3,30.24,NNE,20,7.0,8.0,42,0.00,,,0.00,710,LWC V2.00 B727,2013-02-26 17:05:00,
2013-02-26 10:10:00,31.4,11.5,30.24,NE,40,3.0,8.0,43,0.00,,,0.00,719,LWC V2.00 B727,2013-02-26 17:10:00,
2013-02-26 10:15:00,31.5,11.1,30.24,SW,223,11.0,12.0,42,0.00,,,0.00,731,LWC V2.00 B727,2013-02-26 17:15:00,
2013-02-26 10:20:00,31.6,11.2,30.24,SSW,211,7.0,14.0,42,0.00,,,0.00,747,LWC V2.00 B727,2013-02-26 17:20:00,
2013-02-26 10:25:00,31.4,11.5,30.23,WSW,253,7.0,10.0,43,0.00,,,0.00,754,LWC V2.00 B727,2013-02-26 17:25:00,
2013-02-26 10:30:00,31.2,11.3,30.23,North,355,5.0,10.0,43,0.00,,,0.00,763,LWC V2.00 B727,2013-02-26 17:30:00,
2013-02-26 10:35:00,31.6,13.2,30.23,SW,226,5.0,8.0,46,0.00,,,0.00,775,LWC V2.00 B727,2013-02-26 17:35:00,
2013-02-26 10:40:00,32.1,12.7,30.23,South,187,4.0,9.0,44,0.00,,,0.00,788,LWC V2.00 B727,2013-02-26 17:40:00,
2013-02-26 10:45:00,32.3,12.3,30.23,SW,231,4.0,6.0,43,0.00,,,0.00,793,LWC V2.00 B727,2013-02-26 17:45:00,
2013-02-26 10:50:00,32.9,12.4,30.23,North,355,5.0,12.0,42,0.00,,,0.00,802,LWC V2.00 B727,2013-02-26 17:50:00,
2013-02-26 10:55:00,33.0,13.0,30.22,NW,310,2.0,8.0,43,0.00,,,0.00,849,LWC V2.00 B727,2013-02-26 17:55:00,
2013-02-26 11:00:00,33.6,13.0,30.22,SW,232,8.0,15.0,42,0.00,,,0.00,846,LWC V2.00 B727,2013-02-26 18:00:00,
2013-02-26 11:05:00,32.9,11.3,30.21,WSW,250,3.0,15.0,40,0.00,,,0.00,863,LWC V2.00 B727,2013-02-26 18:05:00,
2013-02-26 11:10:00,32.8,12.8,30.21,SSW,211,2.0,8.0,43,0.00,,,0.00,879,LWC V2.00 B727,2013-02-26 18:10:00,
2013-02-26 11:15:00,33.0,12.4,30.21,SSW,198,6.0,15.0,42,0.00,,,0.00,947,LWC V2.00 B727,2013-02-26 18:15:00,
2013-02-26 11:20:00,32.3,11.3,30.20,North,355,9.0,11.0,41,0.00,,,0.00,144,LWC V2.00 B727,2013-02-26 18:20:00,
2013-02-26 11:25:00,31.8,11.9,30.20,NE,42,5.0,5.0,43,0.00,,,0.00,954,LWC V2.00 B727,2013-02-26 18:25:00,
2013-02-26 11:30:00,32.4,12.4,30.20,SW,232,6.0,11.0,43,0.00,,,0.00,960,LWC V2.00 B727,2013-02-26 18:30:00,
2013-02-26 11:35:00,32.4,10.2,30.19,NNE,30,3.0,13.0,39,0.00,,,0.00,912,LWC V2.00 B727,2013-02-26 18:35:00,
2013-02-26 11:40:00,32.5,9.2,30.19,SW,222,5.0,11.0,37,0.00,,,0.00,225,LWC V2.00 B727,2013-02-26 18:40:00,
2013-02-26 11:45:00,32.9,11.3,30.19,North,0,7.0,10.0,40,0.00,,,0.00,1085,LWC V2.00 B727,2013-02-26 18:45:00,
2013-02-26 11:50:00,32.1,8.8,30.18,NNW,338,14.0,16.0,37,0.00,,,0.00,299,LWC V2.00 B727,2013-02-26 18:50:00,
2013-02-26 11:55:00,31.3,8.7,30.18,North,355,8.0,14.0,38,0.00,,,0.00,257,LWC V2.00 B727,2013-02-26 18:55:00,
2013-02-26 12:00:00,31.7,10.2,30.18,WSW,241,7.0,8.0,40,0.00,,,0.00,895,LWC V2.00 B727,2013-02-26 19:00:00,
2013-02-26 12:05:00,32.4,9.7,30.17,SW,229,11.0,14.0,38,0.00,,,0.00,928,LWC V2.00 B727,2013-02-26 19:05:00,
2013-02-26 12:10:00,32.8,10.0,30.17,SSW,192,6.0,14.0,38,0.00,,,0.00,889,LWC V2.00 B727,2013-02-26 19:10:00,
2013-02-26 12:15:00,33.2,9.8,30.17,South,176,5.0,11.0,37,0.00,,,0.00,893,LWC V2.00 B727,2013-02-26 19:15:00,
2013-02-26 12:20:00,33.4,8.7,30.17,SSW,202,4.0,15.0,35,0.00,,,0.00,886,LWC V2.00 B727,2013-02-26 19:20:00,
2013-02-26 12:25:00,33.2,8.5,30.17,NNW,337,7.0,17.0,35,0.00,,,0.00,886,LWC V2.00 B727,2013-02-26 19:25:00,
2013-02-26 12:30:00,33.2,8.5,30.17,North,5,8.0,17.0,35,0.00,,,0.00,882,LWC V2.00 B727,2013-02-26 19:30:00,
2013-02-26 12:35:00,33.0,7.7,30.16,SW,230,12.0,15.0,34,0.00,,,0.00,882,LWC V2.00 B727,2013-02-26 19:35:00,
2013-02-26 12:40:00,33.4,6.8,30.16,WSW,257,3.0,14.0,32,0.00,,,0.00,886,LWC V2.00 B727,2013-02-26 19:40:00,
2013-02-26 12:45:00,34.1,10.0,30.16,SW,236,10.0,14.0,36,0.00,,,0.00,896,LWC V2.00 B727,2013-02-26 19:45:00,
2013-02-26 12:50:00,34.3,11.4,30.16,SSW,213,4.0,9.0,38,0.00,,,0.00,902,LWC V2.00 B727,2013-02-26 19:50:00,
2013-02-26 12:55:00,34.4,9.6,30.16,SW,232,5.0,10.0,35,0.00,,,0.00,983,LWC V2.00 B727,2013-02-26 19:55:00,
2013-02-26 13:00:00,34.4,9.0,30.16,West,269,16.0,16.0,34,0.00,,,0.00,907,LWC V2.00 B727,2013-02-26 20:00:00,
2013-02-26 13:05:00,33.9,9.2,30.16,SW,227,11.0,12.0,35,0.00,,,0.00,958,LWC V2.00 B727,2013-02-26 20:05:00,
2013-02-26 13:10:00,32.7,7.5,30.16,WSW,242,17.0,24.0,34,0.00,,,0.00,207,LWC V2.00 B727,2013-02-26 20:10:00,
2013-02-26 13:15:00,32.3,9.6,30.16,WSW,254,12.0,16.0,38,0.00,,,0.00,1004,LWC V2.00 B727,2013-02-26 20:15:00,
2013-02-26 13:20:00,31.9,9.2,30.16,SW,218,11.0,13.0,38,0.00,,,0.00,954,LWC V2.00 B727,2013-02-26 20:20:00,
2013-02-26 13:25:00,31.7,7.8,30.16,SW,221,4.0,12.0,36,0.00,,,0.00,134,LWC V2.00 B727,2013-02-26 20:25:00,
2013-02-26 13:30:00,31.0,7.8,30.16,SW,235,7.0,14.0,37,0.00,,,0.00,916,LWC V2.00 B727,2013-02-26 20:30:00,
2013-02-26 13:35:00,31.8,7.9,30.16,West,277,2.0,20.0,36,0.00,,,0.00,977,LWC V2.00 B727,2013-02-26 20:35:00,
2013-02-26 13:40:00,33.1,10.9,30.16,WNW,295,2.0,19.0,39,0.00,,,0.00,977,LWC V2.00 B727,2013-02-26 20:40:00,
2013-02-26 13:45:00,33.6,10.1,30.16,WSW,237,9.0,17.0,37,0.00,,,0.00,381,LWC V2.00 B727,2013-02-26 20:45:00,
2013-02-26 13:50:00,32.8,8.8,30.16,West,261,21.0,24.0,36,0.00,,,0.00,381,LWC V2.00 B727,2013-02-26 20:50:00,
2013-02-26 13:55:00,31.8,9.1,30.17,SW,234,5.0,11.0,38,0.00,,,0.00,271,LWC V2.00 B727,2013-02-26 20:55:00,
2013-02-26 14:00:00,30.8,9.4,30.17,North,350,6.0,12.0,40,0.00,,,0.00,244,LWC V2.00 B727,2013-02-26 21:00:00,
2013-02-26 14:05:00,29.8,9.0,30.18,WSW,243,9.0,12.0,41,0.00,,,0.00,299,LWC V2.00 B727,2013-02-26 21:05:00,
2013-02-26 14:10:00,29.3,8.6,30.18,NNE,13,8.0,10.0,41,0.00,,,0.00,366,LWC V2.00 B727,2013-02-26 21:10:00,
2013-02-26 14:15:00,29.2,7.9,30.18,WSW,241,11.0,11.0,40,0.00,,,0.00,234,LWC V2.00 B727,2013-02-26 21:15:00,
2013-02-26 14:20:00,29.0,6.6,30.19,SW,222,7.0,16.0,38,0.00,,,0.00,271,LWC V2.00 B727,2013-02-26 21:20:00,
2013-02-26 14:25:00,28.9,6.5,30.19,North,5,10.0,14.0,38,0.00,,,0.00,322,LWC V2.00 B727,2013-02-26 21:25:00,
2013-02-26 14:30:00,30.2,7.1,30.19,ENE,74,5.0,15.0,37,0.00,,,0.00,889,LWC V2.00 B727,2013-02-26 21:30:00,
2013-02-26 14:35:00,30.8,6.4,30.19,WSW,241,14.0,16.0,35,0.00,,,0.00,329,LWC V2.00 B727,2013-02-26 21:35:00,
2013-02-26 14:40:00,30.6,6.2,30.20,WSW,252,15.0,15.0,35,0.00,,,0.00,244,LWC V2.00 B727,2013-02-26 21:40:00,
2013-02-26 14:45:00,30.2,5.9,30.20,NNW,336,1.0,9.0,35,0.00,,,0.00,132,LWC V2.00 B727,2013-02-26 21:45:00,
2013-02-26 14:50:00,29.5,5.3,30.20,WSW,253,4.0,19.0,35,0.00,,,0.00,125,LWC V2.00 B727,2013-02-26 21:50:00,
2013-02-26 14:55:00,28.8,4.6,30.21,NW,317,11.0,18.0,35,0.00,,,0.00,216,LWC V2.00 B727,2013-02-26 21:55:00,
2013-02-26 15:00:00,28.5,5.6,30.21,NNE,25,4.0,15.0,37,0.00,,,0.00,190,LWC V2.00 B727,2013-02-26 22:00:00,
2013-02-26 15:05:00,28.5,5.6,30.22,East,93,7.0,13.0,37,0.00,,,0.00,165,LWC V2.00 B727,2013-02-26 22:05:00,
2013-02-26 15:10:00,28.3,5.4,30.22,North,355,5.0,13.0,37,0.00,,,0.00,105,LWC V2.00 B727,2013-02-26 22:10:00,
2013-02-26 15:15:00,27.8,5.0,30.23,North,0,10.0,14.0,37,0.00,,,0.00,105,LWC V2.00 B727,2013-02-26 22:15:00,
2013-02-26 15:20:00,27.6,4.2,30.23,SSW,208,6.0,11.0,36,0.00,,,0.00,563,LWC V2.00 B727,2013-02-26 22:20:00,
2013-02-26 15:25:00,28.3,5.4,30.23,SW,223,6.0,9.0,37,0.00,,,0.00,585,LWC V2.00 B727,2013-02-26 22:25:00,
2013-02-26 15:30:00,29.4,5.2,30.23,WNW,300,4.0,14.0,35,0.00,,,0.00,570,LWC V2.00 B727,2013-02-26 22:30:00,
2013-02-26 15:35:00,30.1,5.8,30.23,SW,230,8.0,16.0,35,0.00,,,0.00,536,LWC V2.00 B727,2013-02-26 22:35:00,
2013-02-26 15:40:00,30.7,6.3,30.24,NE,41,3.0,8.0,35,0.00,,,0.00,531,LWC V2.00 B727,2013-02-26 22:40:00,
2013-02-26 15:45:00,30.2,5.2,30.24,SW,228,6.0,11.0,34,0.00,,,0.00,76,LWC V2.00 B727,2013-02-26 22:45:00,
2013-02-26 15:50:00,29.9,6.2,30.24,SW,218,5.0,10.0,36,0.00,,,0.00,501,LWC V2.00 B727,2013-02-26 22:50:00,
2013-02-26 15:55:00,30.3,6.0,30.25,WSW,244,18.0,18.0,35,0.00,,,0.00,483,LWC V2.00 B727,2013-02-26 22:55:00,
2013-02-26 16:00:00,30.2,5.2,30.25,SSW,209,10.0,14.0,34,0.00,,,0.00,60,LWC V2.00 B727,2013-02-26 23:00:00,
2013-02-26 16:05:00,29.1,3.6,30.25,SW,221,4.0,14.0,33,0.00,,,0.00,63,LWC V2.00 B727,2013-02-26 23:05:00,
2013-02-26 16:10:00,28.1,3.4,30.25,WSW,239,8.0,13.0,34,0.00,,,0.00,62,LWC V2.00 B727,2013-02-26 23:10:00,
2013-02-26 16:15:00,27.6,2.9,30.25,SW,223,11.0,11.0,34,0.00,,,0.00,79,LWC V2.00 B727,2013-02-26 23:15:00,
2013-02-26 16:20:00,27.2,3.8,30.26,WSW,241,6.0,11.0,36,0.00,,,0.00,86,LWC V2.00 B727,2013-02-26 23:20:00,
2013-02-26 16:25:00,27.1,4.9,30.26,SW,219,8.0,11.0,38,0.00,,,0.00,111,LWC V2.00 B727,2013-02-26 23:25:00,
2013-02-26 16:30:00,26.9,5.3,30.26,WSW,248,6.0,11.0,39,0.00,,,0.00,90,LWC V2.00 B727,2013-02-26 23:30:00,
2013-02-26 16:35:00,26.7,5.7,30.26,SW,221,5.0,14.0,40,0.00,,,0.00,114,LWC V2.00 B727,2013-02-26 23:35:00,
2013-02-26 16:40:00,26.6,6.6,30.27,WSW,241,7.0,10.0,42,0.00,,,0.00,120,LWC V2.00 B727,2013-02-26 23:40:00,
2013-02-26 16:45:00,26.5,6.0,30.27,NNW,338,9.0,11.0,41,0.00,,,0.00,77,LWC V2.00 B727,2013-02-26 23:45:00,
2013-02-26 16:50:00,26.3,5.8,30.27,NE,40,3.0,8.0,41,0.00,,,0.00,155,LWC V2.00 B727,2013-02-26 23:50:00,
2013-02-26 16:55:00,26.2,5.2,30.27,North,0,3.0,16.0,40,0.00,,,0.00,97,LWC V2.00 B727,2013-02-26 23:55:00,
2013-02-26 17:00:00,26.5,4.9,30.28,SE,125,1.0,7.0,39,0.00,,,0.00,230,LWC V2.00 B727,2013-02-27 00:00:00,
2013-02-26 17:05:00,27.0,3.6,30.28,WSW,239,4.0,7.0,36,0.00,,,0.00,200,LWC V2.00 B727,2013-02-27 00:05:00,
2013-02-26 17:10:00,27.5,3.5,30.29,SW,227,5.0,13.0,35,0.00,,,0.00,148,LWC V2.00 B727,2013-02-27 00:10:00,
2013-02-26 17:15:00,27.7,3.7,30.29,SSE,164,4.0,4.0,35,0.00,,,0.00,137,LWC V2.00 B727,2013-02-27 00:15:00,
2013-02-26 17:20:00,27.8,3.1,30.30,WSW,252,6.0,7.0,34,0.00,,,0.00,127,LWC V2.00 B727,2013-02-27 00:20:00,
2013-02-26 17:25:00,27.6,2.9,30.30,SW,229,5.0,8.0,34,0.00,,,0.00,65,LWC V2.00 B727,2013-02-27 00:25:00,
2013-02-26 17:30:00,27.5,3.5,30.30,WSW,241,3.0,12.0,35,0.00,,,0.00,63,LWC V2.00 B727,2013-02-27 00:30:00,
2013-02-26 17:35:00,27.3,2.7,30.31,West,260,2.0,9.0,34,0.00,,,0.00,42,LWC V2.00 B727,2013-02-27 00:35:00,
2013-02-26 17:40:00,27.0,2.4,30.31,SW,228,6.0,10.0,34,0.00,,,0.00,23,LWC V2.00 B727,2013-02-27 00:40:00,
2013-02-26 17:45:00,26.6,2.7,30.31,WSW,237,3.0,10.0,35,0.00,,,0.00,16,LWC V2.00 B727,2013-02-27 00:45:00,
2013-02-26 17:50:00,26.3,3.6,30.32,SW,230,0.0,2.0,37,0.00,,,0.00,11,LWC V2.00 B727,2013-02-27 00:50:00,
2013-02-26 17:55:00,26.1,3.4,30.33,SW,231,1.0,4.0,37,0.00,,,0.00,0,LWC V2.00 B727,2013-02-27 00:55:00,
2013-02-26 18:00:00,25.9,3.3,30.33,SW,230,4.0,6.0,37,0.00,,,0.00,0,LWC V2.00 B727,2013-02-27 01:00:00,
2013-02-26 18:05:00,25.7,4.2,30.33,North,0,0.0,4.0,39,0.00,,,0.00,0,LWC V2.00 B727,2013-02-27 01:05:00,
2013-02-26 18:10:00,25.4,3.4,30.34,NW,315,2.0,7.0,38,0.00,,,0.00,0,LWC V2.00 B727,2013-02-27 01:10:00,
2013-02-26 18:15:00,25.3,4.4,30.34,SW,232,1.0,6.0,40,0.00,,,0.00,0,LWC V2.00 B727,2013-02-27 01:15:00,
2013-02-26 18:20:00,25.1,4.8,30.34,North,0,0.0,6.0,41,0.00,,,0.00,0,LWC V2.00 B727,2013-02-27 01:20:00,
2013-02-26 18:25:00,24.9,5.1,30.34,WSW,257,2.0,5.0,42,0.00,,,0.00,0,LWC V2.00 B727,2013-02-27 01:25:00,
2013-02-26 18:30:00,24.8,4.5,30.35,SSE,163,1.0,10.0,41,0.00,,,0.00,0,LWC V2.00 B727,2013-02-27 01:30:00,
2013-02-26 18:35:00,24.7,4.4,30.35,North,351,4.0,6.0,41,0.00,,,0.00,0,LWC V2.00 B727,2013-02-27 01:35:00,
2013-02-26 18:40:00,24.7,4.9,30.35,SSW,213,1.0,6.0,42,0.00,,,0.00,0,LWC V2.00 B727,2013-02-27 01:40:00,
2013-02-26 18:45:00,24.6,5.3,30.36,SW,227,5.0,11.0,43,0.00,,,0.00,0,LWC V2.00 B727,2013-02-27 01:45:00,
2013-02-26 18:50:00,24.5,5.2,30.36,WSW,242,7.0,8.0,43,0.00,,,0.00,0,LWC V2.00 B727,2013-02-27 01:50:00,
2013-02-26 18:55:00,24.5,5.2,30.37,WNW,303,1.0,10.0,43,0.00,,,0.00,0,LWC V2.00 B727,2013-02-27 01:55:00,
2013-02-26 19:00:00,24.4,5.7,30.37,North,0,4.0,5.0,44,0.00,,,0.00,0,LWC V2.00 B727,2013-02-27 02:00:00,
2013-02-26 19:05:00,24.3,5.6,30.38,WSW,240,9.0,9.0,44,0.00,,,0.00,0,LWC V2.00 B727,2013-02-27 02:05:00,
2013-02-26 19:10:00,24.2,7.4,30.38,ESE,102,2.0,8.0,48,0.00,,,0.00,0,LWC V2.00 B727,2013-02-27 02:10:00,
2013-02-26 19:12:00,24.1,8.6,30.38,SW,221,3.0,9.0,51,0.00,,,0.00,0,LWC V2.00 B727,2013-02-27 02:12:00,
2013-02-26 19:17:00,23.8,11.2,30.39,WSW,242,1.0,5.0,58,0.00,,,0.00,0,LWC V2.00 B727,2013-02-27 02:17:00,
2013-02-26 19:22:00,23.4,10.8,30.39,SW,223,7.0,12.0,58,0.00,,,0.00,0,LWC V2.00 B727,2013-02-27 02:22:00,
2013-02-26 19:27:00,23.0,9.7,30.39,North,5,2.0,7.0,56,0.00,,,0.00,0,LWC V2.00 B727,2013-02-27 02:27:00,
2013-02-26 19:32:00,22.9,9.2,30.39,SSW,212,1.0,4.0,55,0.00,,,0.00,0,LWC V2.00 B727,2013-02-27 02:32:00,
2013-02-26 19:37:00,22.8,8.3,30.39,SW,225,2.0,5.0,53,0.00,,,0.00,0,LWC V2.00 B727,2013-02-27 02:37:00,
2013-02-26 19:42:00,22.9,6.6,30.39,WSW,237,4.0,10.0,49,0.00,,,0.00,0,LWC V2.00 B727,2013-02-27 02:42:00,
2013-02-26 19:47:00,23.0,6.7,30.40,SW,215,6.0,6.0,49,0.00,,,0.00,0,LWC V2.00 B727,2013-02-27 02:47:00,
2013-02-26 19:52:00,23.0,10.5,30.40,SW,225,3.0,5.0,58,0.00,,,0.00,0,LWC V2.00 B727,2013-02-27 02:52:00,
2013-02-26 19:57:00,22.8,9.1,30.41,NNW,336,4.0,5.0,55,0.00,,,0.00,0,LWC V2.00 B727,2013-02-27 02:57:00,
2013-02-26 20:02:00,22.6,10.1,30.41,NE,39,3.0,7.0,58,0.00,,,0.00,0,LWC V2.00 B727,2013-02-27 03:02:00,
2013-02-26 20:07:00,22.3,12.0,30.42,NNW,348,3.0,11.0,64,0.00,,,0.00,0,LWC V2.00 B727,2013-02-27 03:07:00,
2013-02-26 20:12:00,21.8,13.5,30.42,WSW,242,1.0,2.0,70,0.00,,,0.00,0,LWC V2.00 B727,2013-02-27 03:12:00,
2013-02-26 20:17:00,21.5,13.3,30.43,WSW,247,0.0,0.0,70,0.00,,,0.00,0,LWC V2.00 B727,2013-02-27 03:17:00,
2013-02-26 20:22:00,21.3,13.4,30.43,WSW,244,0.0,0.0,71,0.00,,,0.00,0,LWC V2.00 B727,2013-02-27 03:22:00,
2013-02-26 20:27:00,21.1,13.5,30.43,WSW,244,2.0,2.0,72,0.00,,,0.00,0,LWC V2.00 B727,2013-02-27 03:27:00,
2013-02-26 20:32:00,20.9,13.3,30.44,WSW,244,0.0,1.0,72,0.00,,,0.00,0,LWC V2.00 B727,2013-02-27 03:32:00,
2013-02-26 20:37:00,20.7,13.4,30.44,WSW,244,0.0,1.0,73,0.00,,,0.00,0,LWC V2.00 B727,2013-02-27 03:37:00,
2013-02-26 20:42:00,20.5,13.2,30.44,WSW,244,0.0,0.0,73,0.00,,,0.00,0,LWC V2.00 B727,2013-02-27 03:42:00,
2013-02-26 20:47:00,20.3,12.7,30.44,WSW,244,0.0,1.0,72,0.00,,,0.00,0,LWC V2.00 B727,2013-02-27 03:47:00,
2013-02-26 20:52:00,20.1,12.5,30.45,WSW,244,0.0,1.0,72,0.00,,,0.00,0,LWC V2.00 B727,2013-02-27 03:52:00,
2013-02-26 20:57:00,19.8,12.6,30.45,WSW,237,1.0,2.0,73,0.00,,,0.00,0,LWC V2.00 B727,2013-02-27 03:57:00,
2013-02-26 21:02:00,19.7,12.5,30.45,SSW,199,1.0,4.0,73,0.00,,,0.00,0,LWC V2.00 B727,2013-02-27 04:02:00,
2013-02-26 21:07:00,19.7,12.8,30.45,South,190,3.0,3.0,74,0.00,,,0.00,0,LWC V2.00 B727,2013-02-27 04:07:00,
2013-02-26 21:12:00,19.7,12.8,30.45,South,188,1.0,3.0,74,0.00,,,0.00,0,LWC V2.00 B727,2013-02-27 04:12:00,
2013-02-26 21:17:00,19.7,12.5,30.46,South,180,0.0,2.0,73,0.00,,,0.00,0,LWC V2.00 B727,2013-02-27 04:17:00,
2013-02-26 21:22:00,19.7,12.2,30.46,South,180,0.0,0.0,72,0.00,,,0.00,0,LWC V2.00 B727,2013-02-27 04:22:00,
2013-02-26 21:27:00,19.8,12.3,30.46,South,180,1.0,1.0,72,0.00,,,0.00,0,LWC V2.00 B727,2013-02-27 04:27:00,
2013-02-26 21:32:00,19.9,12.0,30.47,South,180,0.0,0.0,71,0.00,,,0.00,0,LWC V2.00 B727,2013-02-27 04:32:00,
2013-02-26 21:37:00,20.0,12.1,30.47,South,180,1.0,1.0,71,0.00,,,0.00,0,LWC V2.00 B727,2013-02-27 04:37:00,
2013-02-26 21:42:00,20.1,11.6,30.47,South,180,0.0,1.0,69,0.00,,,0.00,0,LWC V2.00 B727,2013-02-27 04:42:00,
2013-02-26 21:47:00,20.2,11.7,30.48,South,180,0.0,1.0,69,0.00,,,0.00,0,LWC V2.00 B727,2013-02-27 04:47:00,
2013-02-26 21:52:00,20.2,11.7,30.48,South,180,1.0,2.0,69,0.00,,,0.00,0,LWC V2.00 B727,2013-02-27 04:52:00,
2013-02-26 21:57:00,20.2,12.0,30.48,South,180,3.0,4.0,70,0.00,,,0.00,0,LWC V2.00 B727,2013-02-27 04:57:00,
2013-02-26 22:00:00,20.2,12.3,30.49,SSE,163,0.0,1.0,71,0.00,,,0.00,0,LWC V2.00 B727,2013-02-27 05:00:00,
2013-02-26 22:05:00,20.2,12.6,30.49,ESE,105,3.0,3.0,72,0.00,,,0.00,0,LWC V2.00 B727,2013-02-27 05:05:00,
2013-02-26 22:10:00,20.1,13.2,30.49,ENE,76,4.0,5.0,74,0.00,,,0.00,0,LWC V2.00 B727,2013-02-27 05:10:00,
2013-02-26 22:15:00,20.0,13.1,30.49,ENE,76,0.0,2.0,74,0.00,,,0.00,0,LWC V2.00 B727,2013-02-27 05:15:00,
2013-02-26 22:20:00,19.8,12.6,30.49,ENE,76,0.0,1.0,73,0.00,,,0.00,0,LWC V2.00 B727,2013-02-27 05:20:00,
2013-02-26 22:25:00,19.7,12.5,30.49,ENE,76,0.0,0.0,73,0.00,,,0.00,0,LWC V2.00 B727,2013-02-27 05:25:00,
2013-02-26 22:30:00,19.5,12.3,30.49,ENE,75,0.0,0.0,73,0.00,,,0.00,0,LWC V2.00 B727,2013-02-27 05:30:00,
2013-02-26 22:35:00,19.3,12.4,30.50,ENE,75,0.0,1.0,74,0.00,,,0.00,0,LWC V2.00 B727,2013-02-27 05:35:00,
2013-02-26 22:40:00,19.3,12.7,30.50,ENE,76,0.0,0.0,75,0.00,,,0.00,0,LWC V2.00 B727,2013-02-27 05:40:00,
2013-02-26 22:45:00,19.4,13.1,30.50,ENE,76,0.0,0.0,76,0.00,,,0.00,0,LWC V2.00 B727,2013-02-27 05:45:00,
2013-02-26 22:50:00,19.4,13.1,30.50,ENE,75,0.0,1.0,76,0.00,,,0.00,0,LWC V2.00 B727,2013-02-27 05:50:00,
2013-02-26 22:55:00,19.4,13.1,30.50,ENE,76,0.0,1.0,76,0.00,,,0.00,0,LWC V2.00 B727,2013-02-27 05:55:00,
2013-02-26 23:00:00,19.3,13.0,30.51,ENE,76,0.0,0.0,76,0.00,,,0.00,0,LWC V2.00 B727,2013-02-27 06:00:00,
2013-02-26 23:05:00,19.1,12.5,30.51,ENE,76,0.0,0.0,75,0.00,,,0.00,0,LWC V2.00 B727,2013-02-27 06:05:00,
2013-02-26 23:10:00,18.8,12.2,30.51,ENE,75,0.0,0.0,75,0.00,,,0.00,0,LWC V2.00 B727,2013-02-27 06:10:00,
2013-02-26 23:15:00,18.4,11.8,30.51,ENE,75,0.0,0.0,75,0.00,,,0.00,0,LWC V2.00 B727,2013-02-27 06:15:00,
2013-02-26 23:20:00,17.8,11.2,30.51,ENE,76,0.0,0.0,75,0.00,,,0.00,0,LWC V2.00 B727,2013-02-27 06:20:00,
2013-02-26 23:25:00,17.2,11.0,30.51,ENE,78,0.0,1.0,76,0.00,,,0.00,0,LWC V2.00 B727,2013-02-27 06:25:00,
2013-02-26 23:30:00,16.7,10.5,30.52,ENE,78,1.0,2.0,76,0.00,,,0.00,0,LWC V2.00 B727,2013-02-27 06:30:00,
2013-02-26 23:35:00,16.1,10.2,30.51,East,92,0.0,2.0,77,0.00,,,0.00,0,LWC V2.00 B727,2013-02-27 06:35:00,
2013-02-26 23:40:00,15.7,10.1,30.51,East,94,2.0,2.0,78,0.00,,,0.00,0,LWC V2.00 B727,2013-02-27 06:40:00,
2013-02-26 23:45:00,15.4,9.8,30.51,SSE,161,2.0,3.0,78,0.00,,,0.00,0,LWC V2.00 B727,2013-02-27 06:45:00,
2013-02-26 23:50:00,15.1,9.5,30.52,SSE,162,0.0,2.0,78,0.00,,,0.00,0,LWC V2.00 B727,2013-02-27 06:50:00,
2013-02-26 23:55:00,15.1,9.8,30.52,SSE,163,2.0,2.0,79,0.00,,,0.00,0,LWC V2.00 B727,2013-02-27 06:55:00,